sensor_id;sensor_type;location;lat;lon;timestamp;temperature;humidity
15574;DHT22;7888;46.748;8.102;2023-05-07T00:02:25;17.10;54.30
15574;DHT22;7888;46.748;8.102;2023-05-07T00:04:51;17.00;54.30
15574;DHT22;7888;46.748;8.102;2023-05-07T00:07:17;17.00;54.30
15574;DHT22;7888;46.748;8.102;2023-05-07T00:09:43;17.00;54.50
15574;DHT22;7888;46.748;8.102;2023-05-07T00:12:09;17.00;54.50
15574;DHT22;7888;46.748;8.102;2023-05-07T00:14:35;17.00;54.50
15574;DHT22;7888;46.748;8.102;2023-05-07T00:17:01;16.90;54.50
15574;DHT22;7888;46.748;8.102;2023-05-07T00:19:27;16.90;54.50
15574;DHT22;7888;46.748;8.102;2023-05-07T00:21:53;16.90;54.50
15574;DHT22;7888;46.748;8.102;2023-05-07T00:24:19;16.90;54.40
15574;DHT22;7888;46.748;8.102;2023-05-07T00:26:45;16.90;55.10
15574;DHT22;7888;46.748;8.102;2023-05-07T00:29:11;16.90;54.50
15574;DHT22;7888;46.748;8.102;2023-05-07T00:31:37;16.80;54.50
15574;DHT22;7888;46.748;8.102;2023-05-07T00:34:02;16.80;54.50
15574;DHT22;7888;46.748;8.102;2023-05-07T00:36:28;16.80;54.50
15574;DHT22;7888;46.748;8.102;2023-05-07T00:38:56;16.80;54.60
15574;DHT22;7888;46.748;8.102;2023-05-07T00:41:22;16.80;54.60
15574;DHT22;7888;46.748;8.102;2023-05-07T00:43:48;16.80;54.60
15574;DHT22;7888;46.748;8.102;2023-05-07T00:46:14;16.70;54.60
15574;DHT22;7888;46.748;8.102;2023-05-07T00:48:41;16.70;54.70
15574;DHT22;7888;46.748;8.102;2023-05-07T00:51:07;16.70;54.60
15574;DHT22;7888;46.748;8.102;2023-05-07T00:53:32;16.70;54.60
15574;DHT22;7888;46.748;8.102;2023-05-07T00:55:59;16.70;54.60
15574;DHT22;7888;46.748;8.102;2023-05-07T00:58:26;16.70;54.60
15574;DHT22;7888;46.748;8.102;2023-05-07T01:00:52;16.60;54.60
15574;DHT22;7888;46.748;8.102;2023-05-07T01:03:18;16.60;54.60
15574;DHT22;7888;46.748;8.102;2023-05-07T01:05:45;16.60;54.60
15574;DHT22;7888;46.748;8.102;2023-05-07T01:08:12;16.60;54.60
15574;DHT22;7888;46.748;8.102;2023-05-07T01:10:39;16.60;54.70
15574;DHT22;7888;46.748;8.102;2023-05-07T01:13:12;16.60;54.80
15574;DHT22;7888;46.748;8.102;2023-05-07T01:15:39;16.60;54.90
15574;DHT22;7888;46.748;8.102;2023-05-07T01:18:06;16.60;54.90
15574;DHT22;7888;46.748;8.102;2023-05-07T01:20:32;16.50;54.90
15574;DHT22;7888;46.748;8.102;2023-05-07T01:23:00;16.50;54.80
15574;DHT22;7888;46.748;8.102;2023-05-07T01:25:27;16.50;55.00
15574;DHT22;7888;46.748;8.102;2023-05-07T01:27:53;16.50;54.90
15574;DHT22;7888;46.748;8.102;2023-05-07T01:30:20;16.50;55.00
15574;DHT22;7888;46.748;8.102;2023-05-07T01:32:57;16.50;55.00
15574;DHT22;7888;46.748;8.102;2023-05-07T01:35:34;16.50;55.30
15574;DHT22;7888;46.748;8.102;2023-05-07T01:38:06;16.50;55.30
15574;DHT22;7888;46.748;8.102;2023-05-07T01:40:33;16.50;55.00
15574;DHT22;7888;46.748;8.102;2023-05-07T01:43:01;16.40;55.00
15574;DHT22;7888;46.748;8.102;2023-05-07T01:45:28;16.40;55.10
15574;DHT22;7888;46.748;8.102;2023-05-07T01:47:56;16.40;55.10
15574;DHT22;7888;46.748;8.102;2023-05-07T01:50:25;16.40;55.00
15574;DHT22;7888;46.748;8.102;2023-05-07T01:52:52;16.40;55.20
15574;DHT22;7888;46.748;8.102;2023-05-07T01:55:18;16.40;55.10
15574;DHT22;7888;46.748;8.102;2023-05-07T01:57:44;16.30;55.00
15574;DHT22;7888;46.748;8.102;2023-05-07T02:00:10;16.30;55.00
15574;DHT22;7888;46.748;8.102;2023-05-07T02:02:36;16.30;55.00
15574;DHT22;7888;46.748;8.102;2023-05-07T02:05:03;16.30;55.10
15574;DHT22;7888;46.748;8.102;2023-05-07T02:07:30;16.30;55.10
15574;DHT22;7888;46.748;8.102;2023-05-07T02:09:56;16.30;55.10
15574;DHT22;7888;46.748;8.102;2023-05-07T02:12:22;16.30;55.10
15574;DHT22;7888;46.748;8.102;2023-05-07T02:14:48;16.30;55.10
15574;DHT22;7888;46.748;8.102;2023-05-07T02:17:15;16.30;55.20
15574;DHT22;7888;46.748;8.102;2023-05-07T02:19:40;16.20;55.20
15574;DHT22;7888;46.748;8.102;2023-05-07T02:22:07;16.20;55.20
15574;DHT22;7888;46.748;8.102;2023-05-07T02:24:35;16.20;55.30
15574;DHT22;7888;46.748;8.102;2023-05-07T02:27:01;16.20;55.30
15574;DHT22;7888;46.748;8.102;2023-05-07T02:29:27;16.20;55.20
15574;DHT22;7888;46.748;8.102;2023-05-07T02:31:53;16.20;55.30
15574;DHT22;7888;46.748;8.102;2023-05-07T02:34:19;16.10;55.90
15574;DHT22;7888;46.748;8.102;2023-05-07T02:36:45;16.10;55.30
15574;DHT22;7888;46.748;8.102;2023-05-07T02:39:12;16.10;55.30
15574;DHT22;7888;46.748;8.102;2023-05-07T02:41:38;16.10;55.30
15574;DHT22;7888;46.748;8.102;2023-05-07T02:44:04;16.10;55.20
15574;DHT22;7888;46.748;8.102;2023-05-07T02:46:30;16.10;55.30
15574;DHT22;7888;46.748;8.102;2023-05-07T02:48:56;16.10;55.30
15574;DHT22;7888;46.748;8.102;2023-05-07T02:51:23;16.10;55.40
15574;DHT22;7888;46.748;8.102;2023-05-07T02:53:49;16.10;55.30
15574;DHT22;7888;46.748;8.102;2023-05-07T02:56:15;16.00;55.30
15574;DHT22;7888;46.748;8.102;2023-05-07T02:58:40;16.00;55.30
15574;DHT22;7888;46.748;8.102;2023-05-07T03:01:08;16.00;55.30
15574;DHT22;7888;46.748;8.102;2023-05-07T03:03:34;16.00;55.30
15574;DHT22;7888;46.748;8.102;2023-05-07T03:06:01;16.00;55.30
15574;DHT22;7888;46.748;8.102;2023-05-07T03:08:27;16.00;55.30
15574;DHT22;7888;46.748;8.102;2023-05-07T03:10:53;16.00;55.30
15574;DHT22;7888;46.748;8.102;2023-05-07T03:13:18;15.90;55.30
15574;DHT22;7888;46.748;8.102;2023-05-07T03:15:44;16.00;55.40
15574;DHT22;7888;46.748;8.102;2023-05-07T03:18:11;16.00;55.50
15574;DHT22;7888;46.748;8.102;2023-05-07T03:20:37;15.90;55.50
15574;DHT22;7888;46.748;8.102;2023-05-07T03:23:03;15.90;55.60
15574;DHT22;7888;46.748;8.102;2023-05-07T03:25:29;15.90;55.80
15574;DHT22;7888;46.748;8.102;2023-05-07T03:27:57;15.90;55.80
15574;DHT22;7888;46.748;8.102;2023-05-07T03:30:23;15.90;55.80
15574;DHT22;7888;46.748;8.102;2023-05-07T03:32:49;15.90;55.80
15574;DHT22;7888;46.748;8.102;2023-05-07T03:35:15;15.90;55.80
15574;DHT22;7888;46.748;8.102;2023-05-07T03:37:42;15.90;55.80
15574;DHT22;7888;46.748;8.102;2023-05-07T03:40:08;15.90;55.80
15574;DHT22;7888;46.748;8.102;2023-05-07T03:42:35;15.90;55.90
15574;DHT22;7888;46.748;8.102;2023-05-07T03:45:01;15.90;56.00
15574;DHT22;7888;46.748;8.102;2023-05-07T03:47:27;15.90;55.90
15574;DHT22;7888;46.748;8.102;2023-05-07T03:49:53;15.90;55.90
15574;DHT22;7888;46.748;8.102;2023-05-07T03:52:20;15.80;55.80
15574;DHT22;7888;46.748;8.102;2023-05-07T03:54:50;15.80;55.80
15574;DHT22;7888;46.748;8.102;2023-05-07T03:57:15;15.80;55.90
15574;DHT22;7888;46.748;8.102;2023-05-07T03:59:41;15.80;56.00
15574;DHT22;7888;46.748;8.102;2023-05-07T04:02:07;15.80;56.00
15574;DHT22;7888;46.748;8.102;2023-05-07T04:04:32;15.80;56.10
15574;DHT22;7888;46.748;8.102;2023-05-07T04:06:58;15.80;56.30
15574;DHT22;7888;46.748;8.102;2023-05-07T04:09:25;15.80;56.10
15574;DHT22;7888;46.748;8.102;2023-05-07T04:11:51;15.80;56.10
15574;DHT22;7888;46.748;8.102;2023-05-07T04:14:17;15.80;56.10
15574;DHT22;7888;46.748;8.102;2023-05-07T04:16:43;15.70;56.10
15574;DHT22;7888;46.748;8.102;2023-05-07T04:19:08;15.70;56.10
15574;DHT22;7888;46.748;8.102;2023-05-07T04:21:34;15.70;56.20
15574;DHT22;7888;46.748;8.102;2023-05-07T04:24:00;15.70;56.30
15574;DHT22;7888;46.748;8.102;2023-05-07T04:26:26;15.70;56.30
15574;DHT22;7888;46.748;8.102;2023-05-07T04:28:51;15.70;56.30
15574;DHT22;7888;46.748;8.102;2023-05-07T04:31:17;15.70;56.30
15574;DHT22;7888;46.748;8.102;2023-05-07T04:33:43;15.70;56.30
15574;DHT22;7888;46.748;8.102;2023-05-07T04:36:09;15.70;56.30
15574;DHT22;7888;46.748;8.102;2023-05-07T04:38:34;15.70;56.30
15574;DHT22;7888;46.748;8.102;2023-05-07T04:41:04;15.70;56.30
15574;DHT22;7888;46.748;8.102;2023-05-07T04:43:31;15.70;56.50
15574;DHT22;7888;46.748;8.102;2023-05-07T04:45:57;15.70;56.30
15574;DHT22;7888;46.748;8.102;2023-05-07T04:48:22;15.80;56.40
15574;DHT22;7888;46.748;8.102;2023-05-07T04:50:49;15.80;56.50
15574;DHT22;7888;46.748;8.102;2023-05-07T04:53:15;15.80;56.60
15574;DHT22;7888;46.748;8.102;2023-05-07T04:55:42;15.80;56.70
15574;DHT22;7888;46.748;8.102;2023-05-07T04:58:08;15.80;56.70
15574;DHT22;7888;46.748;8.102;2023-05-07T05:00:34;15.90;56.80
15574;DHT22;7888;46.748;8.102;2023-05-07T05:03:00;15.90;56.80
15574;DHT22;7888;46.748;8.102;2023-05-07T05:05:26;15.90;56.90
15574;DHT22;7888;46.748;8.102;2023-05-07T05:07:52;15.90;56.90
15574;DHT22;7888;46.748;8.102;2023-05-07T05:10:18;15.90;56.90
15574;DHT22;7888;46.748;8.102;2023-05-07T05:12:44;16.00;57.00
15574;DHT22;7888;46.748;8.102;2023-05-07T05:15:11;16.00;57.10
15574;DHT22;7888;46.748;8.102;2023-05-07T05:17:38;16.00;57.20
15574;DHT22;7888;46.748;8.102;2023-05-07T05:20:05;16.00;57.20
15574;DHT22;7888;46.748;8.102;2023-05-07T05:22:31;16.10;57.40
15574;DHT22;7888;46.748;8.102;2023-05-07T05:24:57;16.10;57.40
15574;DHT22;7888;46.748;8.102;2023-05-07T05:27:23;16.10;57.40
15574;DHT22;7888;46.748;8.102;2023-05-07T05:29:49;16.20;57.40
15574;DHT22;7888;46.748;8.102;2023-05-07T05:32:15;16.20;57.40
15574;DHT22;7888;46.748;8.102;2023-05-07T05:34:41;16.20;57.40
15574;DHT22;7888;46.748;8.102;2023-05-07T05:37:07;16.30;57.50
15574;DHT22;7888;46.748;8.102;2023-05-07T05:39:33;16.30;57.60
15574;DHT22;7888;46.748;8.102;2023-05-07T05:41:58;16.40;57.80
15574;DHT22;7888;46.748;8.102;2023-05-07T05:44:24;16.40;57.70
15574;DHT22;7888;46.748;8.102;2023-05-07T05:46:50;16.40;57.50
15574;DHT22;7888;46.748;8.102;2023-05-07T05:49:16;16.40;57.50
15574;DHT22;7888;46.748;8.102;2023-05-07T05:51:42;16.50;57.50
15574;DHT22;7888;46.748;8.102;2023-05-07T05:54:09;16.50;57.40
15574;DHT22;7888;46.748;8.102;2023-05-07T05:56:34;16.50;57.40
15574;DHT22;7888;46.748;8.102;2023-05-07T05:59:02;16.50;57.50
15574;DHT22;7888;46.748;8.102;2023-05-07T06:01:28;16.60;57.50
15574;DHT22;7888;46.748;8.102;2023-05-07T06:03:54;16.60;57.60
15574;DHT22;7888;46.748;8.102;2023-05-07T06:06:20;16.60;57.60
15574;DHT22;7888;46.748;8.102;2023-05-07T06:08:45;16.60;57.60
15574;DHT22;7888;46.748;8.102;2023-05-07T06:11:11;16.70;57.40
15574;DHT22;7888;46.748;8.102;2023-05-07T06:13:37;16.70;57.40
15574;DHT22;7888;46.748;8.102;2023-05-07T06:16:03;16.70;57.40
15574;DHT22;7888;46.748;8.102;2023-05-07T06:18:29;16.80;57.50
15574;DHT22;7888;46.748;8.102;2023-05-07T06:20:55;16.80;57.30
15574;DHT22;7888;46.748;8.102;2023-05-07T06:23:21;16.80;57.10
15574;DHT22;7888;46.748;8.102;2023-05-07T06:25:50;16.90;57.10
15574;DHT22;7888;46.748;8.102;2023-05-07T06:28:16;17.00;57.10
15574;DHT22;7888;46.748;8.102;2023-05-07T06:30:42;17.00;57.00
15574;DHT22;7888;46.748;8.102;2023-05-07T06:33:08;17.10;57.10
15574;DHT22;7888;46.748;8.102;2023-05-07T06:35:34;17.20;57.20
15574;DHT22;7888;46.748;8.102;2023-05-07T06:38:00;17.20;57.20
15574;DHT22;7888;46.748;8.102;2023-05-07T06:40:26;17.30;57.10
15574;DHT22;7888;46.748;8.102;2023-05-07T06:42:52;17.40;57.20
15574;DHT22;7888;46.748;8.102;2023-05-07T06:45:19;17.50;57.20
15574;DHT22;7888;46.748;8.102;2023-05-07T06:47:45;17.50;57.20
15574;DHT22;7888;46.748;8.102;2023-05-07T06:50:11;17.60;57.10
15574;DHT22;7888;46.748;8.102;2023-05-07T06:52:37;17.70;56.90
15574;DHT22;7888;46.748;8.102;2023-05-07T06:55:03;17.80;57.00
15574;DHT22;7888;46.748;8.102;2023-05-07T06:57:29;17.90;57.10
15574;DHT22;7888;46.748;8.102;2023-05-07T06:59:55;17.90;57.10
15574;DHT22;7888;46.748;8.102;2023-05-07T07:02:21;18.10;57.40
15574;DHT22;7888;46.748;8.102;2023-05-07T07:04:47;18.10;57.20
15574;DHT22;7888;46.748;8.102;2023-05-07T07:07:12;18.30;57.20
15574;DHT22;7888;46.748;8.102;2023-05-07T07:09:38;18.30;57.00
15574;DHT22;7888;46.748;8.102;2023-05-07T07:12:04;18.40;57.00
15574;DHT22;7888;46.748;8.102;2023-05-07T07:14:30;18.50;56.80
15574;DHT22;7888;46.748;8.102;2023-05-07T07:16:56;18.60;56.80
15574;DHT22;7888;46.748;8.102;2023-05-07T07:19:21;18.70;56.50
15574;DHT22;7888;46.748;8.102;2023-05-07T07:21:47;18.80;56.50
15574;DHT22;7888;46.748;8.102;2023-05-07T07:24:14;18.80;56.20
15574;DHT22;7888;46.748;8.102;2023-05-07T07:26:46;18.90;56.20
15574;DHT22;7888;46.748;8.102;2023-05-07T07:29:12;18.90;56.10
15574;DHT22;7888;46.748;8.102;2023-05-07T07:31:38;19.00;56.10
15574;DHT22;7888;46.748;8.102;2023-05-07T07:34:04;19.00;56.10
15574;DHT22;7888;46.748;8.102;2023-05-07T07:36:30;19.10;56.10
15574;DHT22;7888;46.748;8.102;2023-05-07T07:38:55;19.10;56.40
15574;DHT22;7888;46.748;8.102;2023-05-07T07:41:21;19.20;56.40
15574;DHT22;7888;46.748;8.102;2023-05-07T07:43:47;19.40;56.40
15574;DHT22;7888;46.748;8.102;2023-05-07T07:46:13;19.40;56.30
15574;DHT22;7888;46.748;8.102;2023-05-07T07:48:38;19.50;56.40
15574;DHT22;7888;46.748;8.102;2023-05-07T07:51:04;19.70;56.40
15574;DHT22;7888;46.748;8.102;2023-05-07T07:53:30;19.80;56.10
15574;DHT22;7888;46.748;8.102;2023-05-07T07:55:56;19.90;55.80
15574;DHT22;7888;46.748;8.102;2023-05-07T07:58:22;20.00;55.70
15574;DHT22;7888;46.748;8.102;2023-05-07T08:00:48;20.10;55.70
15574;DHT22;7888;46.748;8.102;2023-05-07T08:03:14;20.20;55.60
15574;DHT22;7888;46.748;8.102;2023-05-07T08:05:42;20.30;55.20
15574;DHT22;7888;46.748;8.102;2023-05-07T08:08:08;20.40;55.00
15574;DHT22;7888;46.748;8.102;2023-05-07T08:10:34;20.50;55.10
15574;DHT22;7888;46.748;8.102;2023-05-07T08:13:04;20.50;54.80
15574;DHT22;7888;46.748;8.102;2023-05-07T08:15:30;20.60;54.50
15574;DHT22;7888;46.748;8.102;2023-05-07T08:17:57;20.70;54.60
15574;DHT22;7888;46.748;8.102;2023-05-07T08:20:25;20.80;54.50
15574;DHT22;7888;46.748;8.102;2023-05-07T08:22:51;20.80;54.20
15574;DHT22;7888;46.748;8.102;2023-05-07T08:25:17;20.90;54.20
15574;DHT22;7888;46.748;8.102;2023-05-07T08:27:43;20.90;54.00
15574;DHT22;7888;46.748;8.102;2023-05-07T08:30:10;20.90;53.70
15574;DHT22;7888;46.748;8.102;2023-05-07T08:32:37;21.00;53.50
15574;DHT22;7888;46.748;8.102;2023-05-07T08:35:02;21.00;53.30
15574;DHT22;7888;46.748;8.102;2023-05-07T08:37:28;21.10;52.70
15574;DHT22;7888;46.748;8.102;2023-05-07T08:39:54;21.10;52.60
15574;DHT22;7888;46.748;8.102;2023-05-07T08:42:22;21.20;52.00
15574;DHT22;7888;46.748;8.102;2023-05-07T08:44:51;21.20;51.50
15574;DHT22;7888;46.748;8.102;2023-05-07T08:47:20;21.30;51.20
15574;DHT22;7888;46.748;8.102;2023-05-07T08:49:48;21.40;50.90
15574;DHT22;7888;46.748;8.102;2023-05-07T08:52:15;21.50;50.70
15574;DHT22;7888;46.748;8.102;2023-05-07T08:54:41;21.50;50.70
15574;DHT22;7888;46.748;8.102;2023-05-07T08:57:08;21.60;50.80
15574;DHT22;7888;46.748;8.102;2023-05-07T08:59:34;21.70;50.50
15574;DHT22;7888;46.748;8.102;2023-05-07T09:02:00;21.70;50.20
15574;DHT22;7888;46.748;8.102;2023-05-07T09:04:26;21.70;50.20
15574;DHT22;7888;46.748;8.102;2023-05-07T09:06:52;21.70;50.20
15574;DHT22;7888;46.748;8.102;2023-05-07T09:09:18;21.80;50.20
15574;DHT22;7888;46.748;8.102;2023-05-07T09:11:44;21.80;50.20
15574;DHT22;7888;46.748;8.102;2023-05-07T09:14:10;21.80;50.50
15574;DHT22;7888;46.748;8.102;2023-05-07T09:16:36;21.90;50.30
15574;DHT22;7888;46.748;8.102;2023-05-07T09:19:01;21.90;49.90
15574;DHT22;7888;46.748;8.102;2023-05-07T09:21:27;22.00;49.60
15574;DHT22;7888;46.748;8.102;2023-05-07T09:23:55;22.00;49.60
15574;DHT22;7888;46.748;8.102;2023-05-07T09:26:22;22.10;49.50
15574;DHT22;7888;46.748;8.102;2023-05-07T09:28:48;22.10;49.50
15574;DHT22;7888;46.748;8.102;2023-05-07T09:31:14;22.20;49.60
15574;DHT22;7888;46.748;8.102;2023-05-07T09:33:40;22.20;49.50
15574;DHT22;7888;46.748;8.102;2023-05-07T09:36:08;22.30;49.60
15574;DHT22;7888;46.748;8.102;2023-05-07T09:38:36;22.40;49.50
15574;DHT22;7888;46.748;8.102;2023-05-07T09:41:11;22.40;49.60
15574;DHT22;7888;46.748;8.102;2023-05-07T09:43:38;22.50;49.60
15574;DHT22;7888;46.748;8.102;2023-05-07T09:46:11;22.60;49.80
15574;DHT22;7888;46.748;8.102;2023-05-07T09:48:39;22.70;49.90
15574;DHT22;7888;46.748;8.102;2023-05-07T09:51:22;22.80;50.00
15574;DHT22;7888;46.748;8.102;2023-05-07T09:53:54;22.90;49.60
15574;DHT22;7888;46.748;8.102;2023-05-07T09:56:23;23.00;49.40
15574;DHT22;7888;46.748;8.102;2023-05-07T09:58:50;23.00;48.90
15574;DHT22;7888;46.748;8.102;2023-05-07T10:01:18;23.10;48.60
15574;DHT22;7888;46.748;8.102;2023-05-07T10:03:48;23.20;48.80
15574;DHT22;7888;46.748;8.102;2023-05-07T10:06:15;23.30;48.80
15574;DHT22;7888;46.748;8.102;2023-05-07T10:08:43;23.40;49.00
15574;DHT22;7888;46.748;8.102;2023-05-07T10:11:09;23.50;48.60
15574;DHT22;7888;46.748;8.102;2023-05-07T10:13:35;23.60;48.20
15574;DHT22;7888;46.748;8.102;2023-05-07T10:16:04;23.70;47.70
15574;DHT22;7888;46.748;8.102;2023-05-07T10:18:31;23.80;47.70
15574;DHT22;7888;46.748;8.102;2023-05-07T10:21:07;23.90;47.20
15574;DHT22;7888;46.748;8.102;2023-05-07T10:23:34;24.00;46.50
15574;DHT22;7888;46.748;8.102;2023-05-07T10:26:06;24.10;46.50
15574;DHT22;7888;46.748;8.102;2023-05-07T10:28:38;24.10;46.20
15574;DHT22;7888;46.748;8.102;2023-05-07T10:34:36;24.20;45.80
15574;DHT22;7888;46.748;8.102;2023-05-07T10:37:04;24.30;46.00
15574;DHT22;7888;46.748;8.102;2023-05-07T10:39:30;24.30;46.00
15574;DHT22;7888;46.748;8.102;2023-05-07T10:42:05;24.30;46.00
15574;DHT22;7888;46.748;8.102;2023-05-07T10:44:33;24.20;45.80
15574;DHT22;7888;46.748;8.102;2023-05-07T10:47:12;24.20;45.90
15574;DHT22;7888;46.748;8.102;2023-05-07T10:52:21;24.10;45.50
15574;DHT22;7888;46.748;8.102;2023-05-07T10:57:45;24.10;45.50
15574;DHT22;7888;46.748;8.102;2023-05-07T11:05:28;24.20;46.10
15574;DHT22;7888;46.748;8.102;2023-05-07T11:07:59;24.20;46.50
15574;DHT22;7888;46.748;8.102;2023-05-07T11:11:07;24.20;46.20
15574;DHT22;7888;46.748;8.102;2023-05-07T11:13:48;24.40;45.70
15574;DHT22;7888;46.748;8.102;2023-05-07T11:16:24;24.40;45.70
15574;DHT22;7888;46.748;8.102;2023-05-07T11:18:53;24.60;46.20
15574;DHT22;7888;46.748;8.102;2023-05-07T11:21:46;24.70;46.00
15574;DHT22;7888;46.748;8.102;2023-05-07T11:24:12;24.90;45.60
15574;DHT22;7888;46.748;8.102;2023-05-07T11:26:43;25.00;45.70
15574;DHT22;7888;46.748;8.102;2023-05-07T11:29:15;25.10;44.90
15574;DHT22;7888;46.748;8.102;2023-05-07T11:31:52;25.20;44.40
15574;DHT22;7888;46.748;8.102;2023-05-07T11:34:23;25.30;44.70
15574;DHT22;7888;46.748;8.102;2023-05-07T11:36:51;25.30;44.50
15574;DHT22;7888;46.748;8.102;2023-05-07T11:39:28;25.30;44.60
15574;DHT22;7888;46.748;8.102;2023-05-07T11:41:57;25.20;44.20
15574;DHT22;7888;46.748;8.102;2023-05-07T11:44:23;25.10;44.40
15574;DHT22;7888;46.748;8.102;2023-05-07T11:46:49;25.10;44.50
15574;DHT22;7888;46.748;8.102;2023-05-07T11:49:15;25.00;44.50
15574;DHT22;7888;46.748;8.102;2023-05-07T11:51:41;25.00;44.80
15574;DHT22;7888;46.748;8.102;2023-05-07T11:54:08;25.00;44.60
15574;DHT22;7888;46.748;8.102;2023-05-07T11:56:37;25.00;44.70
15574;DHT22;7888;46.748;8.102;2023-05-07T11:59:03;24.90;44.80
15574;DHT22;7888;46.748;8.102;2023-05-07T12:01:29;24.90;45.00
15574;DHT22;7888;46.748;8.102;2023-05-07T12:03:54;24.90;45.10
15574;DHT22;7888;46.748;8.102;2023-05-07T12:06:20;24.90;45.20
15574;DHT22;7888;46.748;8.102;2023-05-07T12:08:46;24.80;45.10
15574;DHT22;7888;46.748;8.102;2023-05-07T12:11:21;24.80;45.00
15574;DHT22;7888;46.748;8.102;2023-05-07T12:13:48;24.80;45.00
15574;DHT22;7888;46.748;8.102;2023-05-07T12:16:14;24.90;45.20
15574;DHT22;7888;46.748;8.102;2023-05-07T12:18:40;24.90;45.40
15574;DHT22;7888;46.748;8.102;2023-05-07T12:21:07;24.90;45.50
15574;DHT22;7888;46.748;8.102;2023-05-07T12:23:34;25.00;45.30
15574;DHT22;7888;46.748;8.102;2023-05-07T12:26:01;25.10;45.40
15574;DHT22;7888;46.748;8.102;2023-05-07T12:28:27;25.20;45.60
15574;DHT22;7888;46.748;8.102;2023-05-07T12:30:54;25.30;45.30
15574;DHT22;7888;46.748;8.102;2023-05-07T12:33:24;25.40;45.30
15574;DHT22;7888;46.748;8.102;2023-05-07T12:35:53;25.50;44.50
15574;DHT22;7888;46.748;8.102;2023-05-07T12:38:20;25.70;44.80
15574;DHT22;7888;46.748;8.102;2023-05-07T12:40:48;25.70;44.60
15574;DHT22;7888;46.748;8.102;2023-05-07T12:43:25;25.80;44.30
15574;DHT22;7888;46.748;8.102;2023-05-07T12:45:55;25.80;44.30
15574;DHT22;7888;46.748;8.102;2023-05-07T12:48:26;25.80;44.30
15574;DHT22;7888;46.748;8.102;2023-05-07T12:51:00;25.70;44.40
15574;DHT22;7888;46.748;8.102;2023-05-07T12:53:28;25.70;44.10
15574;DHT22;7888;46.748;8.102;2023-05-07T12:55:57;25.70;44.40
15574;DHT22;7888;46.748;8.102;2023-05-07T12:58:27;25.60;44.40
15574;DHT22;7888;46.748;8.102;2023-05-07T13:00:56;25.50;44.30
15574;DHT22;7888;46.748;8.102;2023-05-07T13:03:26;25.50;44.60
15574;DHT22;7888;46.748;8.102;2023-05-07T13:05:58;25.50;44.60
15574;DHT22;7888;46.748;8.102;2023-05-07T13:08:26;25.50;45.00
15574;DHT22;7888;46.748;8.102;2023-05-07T13:11:03;25.50;45.00
15574;DHT22;7888;46.748;8.102;2023-05-07T13:13:40;25.50;45.10
15574;DHT22;7888;46.748;8.102;2023-05-07T13:16:08;25.60;44.80
15574;DHT22;7888;46.748;8.102;2023-05-07T13:18:35;25.70;45.00
15574;DHT22;7888;46.748;8.102;2023-05-07T13:21:03;25.70;45.00
15574;DHT22;7888;46.748;8.102;2023-05-07T13:23:29;25.80;45.00
15574;DHT22;7888;46.748;8.102;2023-05-07T13:25:56;25.80;44.90
15574;DHT22;7888;46.748;8.102;2023-05-07T13:28:23;25.90;44.80
15574;DHT22;7888;46.748;8.102;2023-05-07T13:30:49;25.90;44.60
15574;DHT22;7888;46.748;8.102;2023-05-07T13:33:17;25.90;44.40
15574;DHT22;7888;46.748;8.102;2023-05-07T13:35:43;25.90;44.10
15574;DHT22;7888;46.748;8.102;2023-05-07T13:38:10;25.90;43.90
15574;DHT22;7888;46.748;8.102;2023-05-07T13:40:36;25.80;43.90
15574;DHT22;7888;46.748;8.102;2023-05-07T13:43:02;25.80;43.90
15574;DHT22;7888;46.748;8.102;2023-05-07T13:45:28;25.80;43.90
15574;DHT22;7888;46.748;8.102;2023-05-07T13:47:55;25.70;43.90
15574;DHT22;7888;46.748;8.102;2023-05-07T13:50:22;25.70;43.90
15574;DHT22;7888;46.748;8.102;2023-05-07T13:52:48;25.60;43.80
15574;DHT22;7888;46.748;8.102;2023-05-07T13:55:17;25.50;43.80
15574;DHT22;7888;46.748;8.102;2023-05-07T13:57:44;25.50;43.90
15574;DHT22;7888;46.748;8.102;2023-05-07T14:00:10;25.50;44.10
15574;DHT22;7888;46.748;8.102;2023-05-07T14:02:37;25.50;44.20
15574;DHT22;7888;46.748;8.102;2023-05-07T14:05:03;25.50;44.20
15574;DHT22;7888;46.748;8.102;2023-05-07T14:07:29;25.50;44.20
15574;DHT22;7888;46.748;8.102;2023-05-07T14:09:56;25.50;44.30
15574;DHT22;7888;46.748;8.102;2023-05-07T14:12:22;25.60;44.20
15574;DHT22;7888;46.748;8.102;2023-05-07T14:14:47;25.60;44.10
15574;DHT22;7888;46.748;8.102;2023-05-07T14:17:16;25.60;43.90
15574;DHT22;7888;46.748;8.102;2023-05-07T14:19:43;25.70;43.90
15574;DHT22;7888;46.748;8.102;2023-05-07T14:22:09;25.70;43.70
15574;DHT22;7888;46.748;8.102;2023-05-07T14:24:35;25.70;43.50
15574;DHT22;7888;46.748;8.102;2023-05-07T14:27:01;25.60;43.50
15574;DHT22;7888;46.748;8.102;2023-05-07T14:29:28;25.50;43.40
15574;DHT22;7888;46.748;8.102;2023-05-07T14:31:53;25.50;43.00
15574;DHT22;7888;46.748;8.102;2023-05-07T14:34:19;25.40;42.60
15574;DHT22;7888;46.748;8.102;2023-05-07T14:36:45;25.30;43.00
15574;DHT22;7888;46.748;8.102;2023-05-07T14:39:11;25.10;42.00
15574;DHT22;7888;46.748;8.102;2023-05-07T14:41:37;24.90;41.80
15574;DHT22;7888;46.748;8.102;2023-05-07T14:44:03;24.70;41.90
15574;DHT22;7888;46.748;8.102;2023-05-07T14:46:29;24.50;41.90
15574;DHT22;7888;46.748;8.102;2023-05-07T14:48:56;24.30;42.10
15574;DHT22;7888;46.748;8.102;2023-05-07T14:51:22;24.10;42.30
15574;DHT22;7888;46.748;8.102;2023-05-07T14:53:50;23.90;42.50
15574;DHT22;7888;46.748;8.102;2023-05-07T14:56:16;23.60;42.70
15574;DHT22;7888;46.748;8.102;2023-05-07T14:58:43;23.50;42.90
15574;DHT22;7888;46.748;8.102;2023-05-07T15:01:09;23.30;43.90
15574;DHT22;7888;46.748;8.102;2023-05-07T15:03:35;23.20;43.50
15574;DHT22;7888;46.748;8.102;2023-05-07T15:06:02;23.00;43.80
15574;DHT22;7888;46.748;8.102;2023-05-07T15:08:28;22.90;44.20
15574;DHT22;7888;46.748;8.102;2023-05-07T15:10:54;22.70;44.60
15574;DHT22;7888;46.748;8.102;2023-05-07T15:13:20;22.60;45.10
15574;DHT22;7888;46.748;8.102;2023-05-07T15:15:47;22.40;45.50
15574;DHT22;7888;46.748;8.102;2023-05-07T15:18:14;22.30;46.00
15574;DHT22;7888;46.748;8.102;2023-05-07T15:20:41;22.10;46.10
15574;DHT22;7888;46.748;8.102;2023-05-07T15:23:08;21.90;46.40
15574;DHT22;7888;46.748;8.102;2023-05-07T15:25:40;21.80;46.70
15574;DHT22;7888;46.748;8.102;2023-05-07T15:28:06;21.70;46.90
15574;DHT22;7888;46.748;8.102;2023-05-07T15:30:32;21.60;47.30
15574;DHT22;7888;46.748;8.102;2023-05-07T15:32:58;21.40;47.70
15574;DHT22;7888;46.748;8.102;2023-05-07T15:35:24;21.30;47.90
15574;DHT22;7888;46.748;8.102;2023-05-07T15:37:51;21.20;48.20
15574;DHT22;7888;46.748;8.102;2023-05-07T15:40:17;21.00;48.50
15574;DHT22;7888;46.748;8.102;2023-05-07T15:42:44;21.00;48.90
15574;DHT22;7888;46.748;8.102;2023-05-07T15:45:10;20.80;49.10
15574;DHT22;7888;46.748;8.102;2023-05-07T15:47:36;20.80;49.40
15574;DHT22;7888;46.748;8.102;2023-05-07T15:50:03;20.70;49.60
15574;DHT22;7888;46.748;8.102;2023-05-07T15:52:29;20.60;49.90
15574;DHT22;7888;46.748;8.102;2023-05-07T15:54:56;20.60;50.10
15574;DHT22;7888;46.748;8.102;2023-05-07T15:57:22;20.50;50.10
15574;DHT22;7888;46.748;8.102;2023-05-07T15:59:49;20.50;50.10